Strona główna
METAR-TAF:

METAR-TAF

Lotnisko :

Port lotniczy Niamey

Niamey, Niger

Szerokość geograficzna: 13-29N, Długość geograficzna: 002-10E, wysokość: 223 m

Aktualna obserwacja pogody

Raport powstał 1 godzina i 13 minut temu, godzina 03:00 UTC
Wiatr 3 kt od północno-północny wschód
Temperatura 20°C
Wilgotność 23%
Ciśnienie 1011 hPa
Widzialność: 8000 m

METAR: DRRN 110300Z 02003KT 8000 NSC 20/M02 Q1011 NOSIG

czas: 05:13 (04:13 UTC)

Prognoza

Raport powstał 5 godziny i 13 minut temu, godzina 23:00 UTC
Prognoza ważna od 11 godzina 00 UTC do 12 godzina 06 UTC
Wiatr 8 kt od wschodnio-północny wschód
Widzialność: 8000 m
Przejściowo
od 11 godzina 06 UTC do 11 godzina 10 UTC
Widzialność: 3500 m
pył

TAF: DRRN 102300Z 1100/1206 06008KT 8000 NSC TEMPO 1106/1110 3500 DU

Obserwacja i prognoza pogody dla ponad 4000 lotnisk (raport METAR i TAF).

Dostępne stacje oznaczono żółtymi i czerwonymi punktami na mapie.

Najedź kursorem aby zobaczyć nazwę stacji.

Kliknij aby zobaczyć obserwacje i prognozy pogody.

Aby zmienić mapę: kliknij na zielony przycisk z czarnym krzyżykiem, aby powiększyć; na zielony przycisk z myślnikiem, aby pomniejszyć; na zielone strzałki, aby przejść do map sąsiednich.


METAR-TAF: